createdAt,value
2019-03-22T00:02:22.772Z,1.17
2019-03-22T00:04:52.687Z,1.10
2019-03-22T00:07:29.200Z,1.73
2019-03-22T00:09:59.116Z,1.43
2019-03-22T00:12:29.086Z,1.10
2019-03-22T00:14:59.131Z,1.27
2019-03-22T00:17:29.126Z,1.20
2019-03-22T00:19:59.040Z,1.03
2019-03-22T00:22:29.800Z,2.20
2019-03-22T00:24:59.738Z,1.10
2019-03-22T00:27:29.652Z,1.33
2019-03-22T00:29:59.665Z,1.33
2019-03-22T00:32:29.580Z,1.40
2019-03-22T00:34:59.680Z,1.30
2019-03-22T00:37:29.654Z,1.30
2019-03-22T00:40:18.229Z,2.27
2019-03-22T00:42:48.291Z,1.03
2019-03-22T00:48:02.216Z,1.50
2019-03-22T00:50:32.414Z,1.67
2019-03-22T00:53:02.419Z,1.30
2019-03-22T00:58:09.482Z,1.47
2019-03-22T01:03:28.752Z,1.60
2019-03-22T01:05:58.906Z,1.30
2019-03-22T01:08:28.975Z,1.10
2019-03-22T01:10:59.267Z,1.27
2019-03-22T01:13:29.347Z,1.60
2019-03-22T01:21:25.119Z,1.97
2019-03-22T01:24:06.282Z,1.50
2019-03-22T01:26:36.228Z,1.77
2019-03-22T01:29:25.266Z,1.90
2019-03-22T01:32:14.179Z,1.40
2019-03-22T01:42:47.207Z,2.13
2019-03-22T01:45:17.664Z,1.10
2019-03-22T01:47:47.646Z,1.60
2019-03-22T01:50:36.431Z,1.57
2019-03-22T01:53:19.081Z,1.60
2019-03-22T01:58:24.023Z,1.60
2019-03-22T02:00:53.990Z,1.23
2019-03-22T02:03:23.912Z,1.13
2019-03-22T02:05:53.824Z,1.43
2019-03-22T02:08:24.047Z,1.50
2019-03-22T02:10:53.964Z,1.23
2019-03-22T02:13:29.013Z,1.70
2019-03-22T02:15:59.167Z,1.40
2019-03-22T02:18:29.086Z,1.80
2019-03-22T02:21:17.799Z,1.40
2019-03-22T02:26:42.395Z,1.30
2019-03-22T02:29:21.459Z,1.30
2019-03-22T02:31:51.450Z,1.40
2019-03-22T02:34:21.385Z,1.20
2019-03-22T02:36:51.428Z,1.00
2019-03-22T02:39:21.531Z,1.43
2019-03-22T02:41:51.498Z,1.10
2019-03-22T02:44:28.182Z,1.87
2019-03-22T02:46:58.215Z,0.97
2019-03-22T02:49:28.570Z,1.80
2019-03-22T02:51:58.560Z,1.40
2019-03-22T02:54:29.084Z,1.33
2019-03-22T02:56:59.051Z,1.13
2019-03-22T02:59:47.723Z,2.20
2019-03-22T03:02:17.901Z,1.20
2019-03-22T03:04:47.944Z,1.37
2019-03-22T03:07:18.068Z,1.23
2019-03-22T03:09:48.032Z,1.27
2019-03-22T03:12:18.123Z,1.27
2019-03-22T03:14:48.596Z,1.17
2019-03-22T03:17:18.604Z,1.20
2019-03-22T03:20:07.689Z,1.30
2019-03-22T03:22:49.196Z,0.90
2019-03-22T03:25:19.365Z,1.60
2019-03-22T03:28:08.118Z,1.10
2019-03-22T03:30:49.100Z,2.03
2019-03-22T03:33:19.849Z,1.10
2019-03-22T03:36:08.660Z,1.47
2019-03-22T03:38:38.577Z,1.50
2019-03-22T03:41:27.370Z,1.33
2019-03-22T03:46:46.899Z,2.10
2019-03-22T03:49:18.896Z,1.30
2019-03-22T03:51:49.154Z,2.10
2019-03-22T03:54:19.134Z,2.03
2019-03-22T03:56:49.047Z,1.40
2019-03-22T03:59:18.998Z,1.10
2019-03-22T04:01:50.141Z,2.00
2019-03-22T04:04:39.076Z,1.53
2019-03-22T04:09:45.165Z,1.47
2019-03-22T04:12:36.514Z,1.00
2019-03-22T04:18:27.619Z,1.40
2019-03-22T04:20:57.500Z,1.63
2019-03-22T04:23:27.531Z,1.50
2019-03-22T04:25:57.497Z,1.40
2019-03-22T04:28:27.511Z,1.30
2019-03-22T04:31:16.222Z,1.70
2019-03-22T04:33:46.801Z,1.37
2019-03-22T04:36:19.194Z,1.57
2019-03-22T04:38:49.166Z,1.77
2019-03-22T04:41:19.264Z,1.47
2019-03-22T04:43:49.481Z,1.67
2019-03-22T04:46:58.501Z,2.00
2019-03-22T04:55:34.250Z,1.63
2019-03-22T05:01:24.764Z,2.50
2019-03-22T05:03:55.205Z,2.13
2019-03-22T05:06:45.490Z,2.10
2019-03-22T05:09:35.686Z,2.00
2019-03-22T05:18:08.201Z,2.03
2019-03-22T05:20:44.241Z,1.83
2019-03-22T05:23:34.900Z,1.87
2019-03-22T05:32:20.831Z,1.93
2019-03-22T05:37:33.151Z,1.70
2019-03-22T05:40:06.307Z,2.00
2019-03-22T05:42:36.510Z,1.90
2019-03-22T05:47:42.359Z,1.70
2019-03-22T05:50:12.552Z,2.27
2019-03-22T05:53:01.347Z,2.07
2019-03-22T05:58:07.424Z,1.93
2019-03-22T06:03:32.183Z,2.57
2019-03-22T06:06:02.207Z,1.80
2019-03-22T06:08:50.979Z,1.97
2019-03-22T06:11:39.814Z,2.20
2019-03-22T06:16:59.178Z,1.93
2019-03-22T06:19:29.144Z,2.23
2019-03-22T06:21:59.417Z,2.73
2019-03-22T06:24:48.176Z,2.30
2019-03-22T06:27:29.531Z,2.00
2019-03-22T06:29:59.707Z,1.90
2019-03-22T06:32:48.382Z,2.00
2019-03-22T06:35:29.345Z,1.97
2019-03-22T06:40:54.863Z,1.90
2019-03-22T06:43:24.797Z,1.87
2019-03-22T06:45:54.821Z,1.80
2019-03-22T06:51:01.346Z,2.00
2019-03-22T06:53:31.290Z,1.80
2019-03-22T06:56:01.382Z,1.80
2019-03-22T06:58:50.154Z,2.03
2019-03-22T07:01:38.927Z,2.40
2019-03-22T07:12:01.287Z,1.57
2019-03-22T07:14:42.599Z,1.83
2019-03-22T07:17:12.571Z,1.97
2019-03-22T07:19:42.500Z,1.60
2019-03-22T07:22:12.419Z,1.83
2019-03-22T07:24:42.494Z,1.80
2019-03-22T07:30:25.058Z,1.47
2019-03-22T07:32:55.020Z,1.80
2019-03-22T07:35:24.968Z,1.77
2019-03-22T07:37:54.979Z,2.30
2019-03-22T07:40:24.891Z,1.80
2019-03-22T07:42:54.843Z,1.77
2019-03-22T07:45:24.788Z,2.10
2019-03-22T07:47:55.878Z,1.60
2019-03-22T07:50:25.922Z,1.80
2019-03-22T07:52:57.334Z,1.80
2019-03-22T07:55:27.369Z,1.63
2019-03-22T07:57:57.369Z,1.40
2019-03-22T08:03:04.767Z,1.47
2019-03-22T08:08:18.353Z,2.20
2019-03-22T08:13:42.262Z,1.10
2019-03-22T08:16:12.253Z,1.93
2019-03-22T08:18:42.188Z,1.47
2019-03-22T08:21:30.889Z,2.20
2019-03-22T08:24:19.514Z,2.27
2019-03-22T08:26:49.498Z,1.60
2019-03-22T08:29:19.432Z,1.50
2019-03-22T08:31:49.348Z,1.60
2019-03-22T08:34:19.334Z,1.97
2019-03-22T08:36:49.284Z,1.30
2019-03-22T08:39:19.152Z,2.47
2019-03-22T08:41:49.170Z,2.00
2019-03-22T08:44:19.421Z,1.93
2019-03-22T08:46:49.358Z,1.60
2019-03-22T08:49:19.368Z,2.23
2019-03-22T08:51:49.721Z,1.80
2019-03-22T08:57:02.224Z,1.47
2019-03-22T08:59:32.141Z,2.00
2019-03-22T09:02:02.973Z,1.80
2019-03-22T09:04:33.479Z,1.17
2019-03-22T09:07:05.159Z,1.50
2019-03-22T09:09:41.466Z,1.87
2019-03-22T09:12:28.850Z,2.07
2019-03-22T09:14:58.887Z,1.57
2019-03-22T09:17:31.366Z,1.90
2019-03-22T09:20:01.369Z,1.77
2019-03-22T09:22:31.296Z,1.53
2019-03-22T09:25:17.954Z,2.20
2019-03-22T09:27:47.981Z,1.90
2019-03-22T09:30:36.712Z,1.60
2019-03-22T09:36:20.569Z,1.60
2019-03-22T09:38:49.069Z,1.40
2019-03-22T09:41:19.070Z,2.63
2019-03-22T09:43:49.008Z,1.77
2019-03-22T09:46:19.021Z,1.63
2019-03-22T09:48:49.335Z,1.87
2019-03-22T09:51:19.268Z,1.87
2019-03-22T09:53:49.427Z,1.50
2019-03-22T09:56:19.421Z,2.53
2019-03-22T09:58:49.372Z,1.40
2019-03-22T10:01:23.973Z,1.97
2019-03-22T10:03:51.251Z,1.60
2019-03-22T10:06:21.362Z,1.60
2019-03-22T10:08:51.252Z,1.50
2019-03-22T10:14:17.147Z,1.70
2019-03-22T10:16:47.733Z,1.20
2019-03-22T10:19:18.961Z,1.97
2019-03-22T10:22:07.779Z,1.40
2019-03-22T10:24:37.746Z,1.00
2019-03-22T10:27:07.827Z,1.40
2019-03-22T10:29:37.921Z,1.37
2019-03-22T10:32:07.793Z,1.60
2019-03-22T10:34:39.733Z,1.57
2019-03-22T10:37:09.423Z,1.43
2019-03-22T10:39:50.402Z,1.47
2019-03-22T10:42:20.367Z,1.63
2019-03-22T10:44:50.314Z,1.60
2019-03-22T10:47:20.284Z,1.27
2019-03-22T10:49:50.242Z,1.50
2019-03-22T10:52:20.253Z,1.63
2019-03-22T10:54:50.151Z,1.47
2019-03-22T10:57:20.121Z,1.50
2019-03-22T10:59:50.076Z,1.20
2019-03-22T11:02:19.991Z,1.43
2019-03-22T11:04:50.051Z,1.30
2019-03-22T11:07:20.072Z,1.70
2019-03-22T11:09:50.043Z,1.87
2019-03-22T11:15:09.953Z,1.40
2019-03-22T11:17:40.092Z,1.20
2019-03-22T11:23:21.235Z,2.17
2019-03-22T11:25:51.193Z,1.70
2019-03-22T11:28:21.197Z,1.90
2019-03-22T11:31:09.709Z,2.30
2019-03-22T11:33:39.692Z,1.53
2019-03-22T11:36:09.649Z,1.60
2019-03-22T11:38:39.613Z,1.40
2019-03-22T11:41:20.729Z,1.30
2019-03-22T11:43:50.991Z,1.33
2019-03-22T11:46:27.510Z,1.53
2019-03-22T11:51:48.064Z,1.40
2019-03-22T11:54:18.450Z,1.37
2019-03-22T11:56:48.441Z,1.50
2019-03-22T11:59:18.684Z,1.20
2019-03-22T12:02:08.883Z,1.80
2019-03-22T12:04:38.850Z,1.20
2019-03-22T12:07:08.786Z,1.13
2019-03-22T12:09:38.737Z,1.13
2019-03-22T12:12:08.735Z,1.13
2019-03-22T12:14:38.660Z,1.93
2019-03-22T12:17:08.603Z,1.00
2019-03-22T12:19:38.576Z,1.03
2019-03-22T12:22:08.616Z,1.60
2019-03-22T12:24:38.601Z,1.10
2019-03-22T12:27:08.568Z,1.30
2019-03-22T12:29:38.556Z,1.30
2019-03-22T12:32:08.673Z,1.30
2019-03-22T12:34:38.683Z,1.07
2019-03-22T12:37:27.460Z,1.33
2019-03-22T12:39:57.509Z,1.13
2019-03-22T12:45:51.922Z,0.90
2019-03-22T12:48:21.897Z,1.23
2019-03-22T12:50:51.838Z,1.20
2019-03-22T12:53:21.103Z,0.90
2019-03-22T12:55:51.112Z,1.20
2019-03-22T12:58:21.045Z,1.03
2019-03-22T13:00:51.081Z,1.20
2019-03-22T13:03:21.047Z,1.30
2019-03-22T13:05:51.015Z,1.40
2019-03-22T13:08:21.092Z,1.10
2019-03-22T13:10:51.091Z,1.37
2019-03-22T13:13:21.071Z,1.47
2019-03-22T13:15:51.064Z,1.20
2019-03-22T13:18:20.997Z,1.20
2019-03-22T13:20:51.221Z,1.33
2019-03-22T13:23:22.760Z,1.10
2019-03-22T13:25:53.241Z,1.40
2019-03-22T13:28:23.215Z,1.10
2019-03-22T13:30:53.191Z,1.30
2019-03-22T13:33:23.210Z,1.30
2019-03-22T13:35:53.173Z,1.70
2019-03-22T13:38:23.216Z,1.37
2019-03-22T13:41:12.040Z,1.77
2019-03-22T13:43:44.410Z,1.30
2019-03-22T13:46:14.328Z,1.10
2019-03-22T13:48:44.307Z,1.03
2019-03-22T13:51:14.315Z,1.00
2019-03-22T13:53:44.315Z,1.20
2019-03-22T13:56:14.271Z,1.30
2019-03-22T13:58:44.373Z,1.50
2019-03-22T14:01:14.369Z,1.20
2019-03-22T14:03:44.352Z,1.13
2019-03-22T14:06:33.169Z,1.17
2019-03-22T14:11:57.526Z,1.27
2019-03-22T14:14:27.481Z,1.40
2019-03-22T14:16:57.441Z,1.10
2019-03-22T14:19:27.506Z,1.00
2019-03-22T14:21:57.526Z,2.00
2019-03-22T14:24:27.545Z,1.10
2019-03-22T14:26:57.741Z,1.23
2019-03-22T14:29:27.778Z,1.10
2019-03-22T14:31:57.824Z,1.20
2019-03-22T14:34:27.851Z,1.43
2019-03-22T14:36:57.950Z,1.70
2019-03-22T14:39:46.813Z,1.10
2019-03-22T14:45:00.662Z,1.27
2019-03-22T14:50:19.880Z,1.13
2019-03-22T14:52:50.309Z,1.50
2019-03-22T14:55:39.042Z,1.20
2019-03-22T15:01:03.942Z,1.43
2019-03-22T15:03:34.229Z,1.00
2019-03-22T15:06:04.276Z,1.37
2019-03-22T15:08:34.306Z,1.10
2019-03-22T15:14:32.439Z,1.10
2019-03-22T15:17:21.326Z,1.10
2019-03-22T15:20:10.171Z,1.07
2019-03-22T15:22:59.000Z,1.20
2019-03-22T15:25:47.936Z,0.83
2019-03-22T15:28:36.792Z,1.00
2019-03-22T15:31:25.906Z,1.10
2019-03-22T15:37:09.187Z,1.23
2019-03-22T15:40:05.538Z,1.23
2019-03-22T15:42:35.605Z,1.10
2019-03-22T15:50:51.821Z,1.13
2019-03-22T15:53:43.861Z,1.10
2019-03-22T15:56:13.999Z,1.23
2019-03-22T15:58:44.244Z,1.20
2019-03-22T16:01:14.364Z,1.07
2019-03-22T16:03:44.710Z,1.10
2019-03-22T16:06:14.755Z,1.00
2019-03-22T16:08:47.387Z,1.10
2019-03-22T16:11:37.446Z,0.90
2019-03-22T16:14:07.513Z,1.10
2019-03-22T16:16:40.285Z,1.03
2019-03-22T16:19:10.208Z,1.17
2019-03-22T16:21:40.168Z,1.50
2019-03-22T16:24:10.121Z,1.10
2019-03-22T16:27:04.156Z,1.03
2019-03-22T16:29:36.600Z,1.07
2019-03-22T16:32:06.544Z,1.20
2019-03-22T16:34:55.327Z,1.10
2019-03-22T16:37:25.260Z,1.10
2019-03-22T16:40:06.081Z,1.40
2019-03-22T16:45:44.908Z,1.10
2019-03-22T16:48:14.887Z,1.20
2019-03-22T16:50:47.229Z,1.20
2019-03-22T16:53:17.605Z,0.93
2019-03-22T16:55:47.665Z,1.10
2019-03-22T16:58:17.696Z,1.00
2019-03-22T17:00:49.897Z,1.23
2019-03-22T17:06:01.272Z,1.47
2019-03-22T17:08:31.321Z,1.27
2019-03-22T17:11:01.312Z,1.77
2019-03-22T17:16:06.750Z,1.13
2019-03-22T17:18:39.801Z,0.87
2019-03-22T17:21:09.767Z,1.10
2019-03-22T17:23:39.715Z,0.90
2019-03-22T17:26:09.770Z,1.00
2019-03-22T17:28:39.718Z,1.23
2019-03-22T17:31:09.719Z,1.30
2019-03-22T17:33:39.772Z,0.80
2019-03-22T17:36:09.719Z,1.33
2019-03-22T17:38:39.670Z,1.20
2019-03-22T17:41:10.135Z,1.00
2019-03-22T17:43:40.065Z,1.20
2019-03-22T17:46:10.053Z,1.40
2019-03-22T17:48:40.007Z,0.90
2019-03-22T17:51:09.980Z,1.20
2019-03-22T17:53:39.987Z,1.00
2019-03-22T17:56:10.064Z,1.07
2019-03-22T17:58:40.015Z,1.00
2019-03-22T18:01:09.946Z,1.40
2019-03-22T18:06:15.802Z,2.07
2019-03-22T18:11:27.177Z,1.30
2019-03-22T18:14:00.076Z,1.10
2019-03-22T18:16:30.080Z,1.70
2019-03-22T18:19:00.390Z,1.00
2019-03-22T18:21:30.633Z,1.47
2019-03-22T18:24:00.596Z,1.23
2019-03-22T18:29:06.044Z,1.30
2019-03-22T18:31:36.076Z,1.30
2019-03-22T18:34:06.166Z,1.37
2019-03-22T18:36:36.181Z,1.00
2019-03-22T18:39:08.605Z,1.10
2019-03-22T18:44:24.125Z,1.23
2019-03-22T18:46:54.238Z,1.37
2019-03-22T18:49:24.221Z,1.53
2019-03-22T18:51:54.431Z,1.20
2019-03-22T18:54:24.347Z,1.30
2019-03-22T18:57:13.219Z,1.47
2019-03-22T19:02:36.375Z,1.60
2019-03-22T19:05:08.008Z,1.10
2019-03-22T19:07:37.976Z,1.20
2019-03-22T19:10:09.991Z,1.03
2019-03-22T19:12:39.976Z,1.20
2019-03-22T19:15:10.967Z,1.20
2019-03-22T19:18:10.906Z,1.57
2019-03-22T19:20:52.201Z,1.07
2019-03-22T19:23:22.164Z,1.30
2019-03-22T19:25:52.215Z,0.83
2019-03-22T19:28:22.226Z,1.60
2019-03-22T19:33:27.334Z,2.07
2019-03-22T19:35:59.392Z,1.43
2019-03-22T19:41:18.346Z,1.50
2019-03-22T19:43:48.282Z,1.60
2019-03-22T19:46:37.073Z,2.20
2019-03-22T19:49:07.570Z,1.60
2019-03-22T19:51:37.478Z,2.00
2019-03-22T19:54:07.639Z,2.43
2019-03-22T19:56:37.559Z,2.00
2019-03-22T19:59:07.519Z,2.57
2019-03-22T20:01:37.489Z,2.17
2019-03-22T20:04:17.745Z,2.60
2019-03-22T20:07:06.472Z,1.87
2019-03-22T20:09:36.572Z,2.20
2019-03-22T20:12:07.047Z,1.80
2019-03-22T20:14:36.963Z,1.90
2019-03-22T20:17:06.922Z,2.57
2019-03-22T20:19:41.657Z,2.27
2019-03-22T20:22:11.782Z,2.10
2019-03-22T20:24:41.721Z,2.10
2019-03-22T20:27:11.739Z,1.60
2019-03-22T20:30:02.091Z,2.03
2019-03-22T20:32:43.404Z,1.90
2019-03-22T20:35:17.278Z,2.30
2019-03-22T20:37:47.254Z,1.67
2019-03-22T20:40:56.321Z,1.87
2019-03-22T20:43:26.356Z,1.90
2019-03-22T20:48:45.291Z,2.07
2019-03-22T20:51:35.663Z,2.40
2019-03-22T20:54:06.348Z,1.53
2019-03-22T20:59:25.381Z,3.00
2019-03-22T21:01:55.383Z,2.00
2019-03-22T21:04:25.350Z,2.13
2019-03-22T21:06:56.746Z,1.90
2019-03-22T21:09:26.695Z,2.00
2019-03-22T21:11:56.595Z,1.70
2019-03-22T21:14:26.531Z,2.53
2019-03-22T21:16:56.601Z,1.80
2019-03-22T21:19:26.537Z,1.90
2019-03-22T21:21:56.598Z,1.93
2019-03-22T21:24:26.471Z,2.17
2019-03-22T21:26:56.684Z,2.47
2019-03-22T21:29:26.637Z,2.63
2019-03-22T21:31:56.552Z,2.63
2019-03-22T21:34:38.037Z,2.17
2019-03-22T21:37:08.517Z,2.37
2019-03-22T21:39:38.525Z,2.27
2019-03-22T21:42:08.438Z,2.23
2019-03-22T21:44:38.398Z,2.10
2019-03-22T21:47:08.796Z,2.73
2019-03-22T21:49:38.757Z,1.90
2019-03-22T21:52:08.694Z,2.17
2019-03-22T21:54:38.609Z,2.10
2019-03-22T21:57:08.885Z,2.37
2019-03-22T21:59:38.792Z,2.00
2019-03-22T22:02:08.816Z,2.40
2019-03-22T22:07:14.841Z,2.30
2019-03-22T22:10:03.484Z,2.50
2019-03-22T22:12:33.493Z,1.63
2019-03-22T22:15:03.541Z,2.10
2019-03-22T22:17:33.530Z,2.37
2019-03-22T22:20:03.568Z,2.33
2019-03-22T22:22:33.583Z,2.20
2019-03-22T22:25:08.156Z,2.30
2019-03-22T22:27:38.127Z,3.00
2019-03-22T22:30:08.888Z,2.30
2019-03-22T22:32:38.847Z,2.23
2019-03-22T22:35:20.283Z,2.00
2019-03-22T22:40:25.437Z,2.57
2019-03-22T22:42:55.474Z,2.47
2019-03-22T22:45:25.376Z,2.50
2019-03-22T22:47:55.418Z,2.33
2019-03-22T22:50:25.354Z,2.27
2019-03-22T22:52:55.283Z,2.30
2019-03-22T22:55:25.242Z,2.73
2019-03-22T22:57:55.362Z,2.47
2019-03-22T23:03:16.257Z,2.93
2019-03-22T23:05:46.311Z,2.50
2019-03-22T23:08:34.958Z,3.23
2019-03-22T23:11:05.277Z,2.67
2019-03-22T23:13:35.315Z,2.43
2019-03-22T23:16:05.435Z,2.23
2019-03-22T23:18:35.661Z,2.50
2019-03-22T23:21:05.606Z,2.30
2019-03-22T23:23:35.609Z,2.50
2019-03-22T23:26:05.909Z,2.40
2019-03-22T23:28:54.573Z,2.50
2019-03-22T23:31:24.488Z,3.73
2019-03-22T23:33:54.492Z,2.50
2019-03-22T23:36:34.952Z,2.97
2019-03-22T23:42:01.511Z,2.73
2019-03-22T23:44:31.558Z,2.67
2019-03-22T23:47:01.815Z,2.90
2019-03-22T23:52:07.112Z,2.60
2019-03-22T23:54:37.602Z,2.67
2019-03-22T23:59:58.324Z,3.47
